createdAt,value
2023-05-14T00:00:09.122Z,72.88
2023-05-14T00:05:11.260Z,72.54
2023-05-14T00:10:13.060Z,72.97
2023-05-14T00:15:14.792Z,73.28
2023-05-14T00:20:16.469Z,73.14
2023-05-14T00:25:18.144Z,73.36
2023-05-14T00:30:20.275Z,73.75
2023-05-14T00:35:22.167Z,73.94
2023-05-14T00:40:27.065Z,74.10
2023-05-14T00:45:29.235Z,73.17
2023-05-14T00:50:30.907Z,73.56
2023-05-14T00:55:32.664Z,74.18
2023-05-14T01:00:34.720Z,74.41
2023-05-14T01:05:43.648Z,74.13
2023-05-14T01:10:52.415Z,74.12
2023-05-14T01:15:57.678Z,74.93
2023-05-14T01:20:59.376Z,75.10
2023-05-14T01:26:01.061Z,74.60
2023-05-14T01:31:23.393Z,75.04
2023-05-14T01:36:25.502Z,74.98
2023-05-14T01:41:29.564Z,75.15
2023-05-14T01:46:33.133Z,75.69
2023-05-14T01:51:35.460Z,76.04
2023-05-14T01:56:37.720Z,75.75
2023-05-14T02:01:39.626Z,75.57
2023-05-14T02:06:41.362Z,75.35
2023-05-14T02:11:43.056Z,75.71
2023-05-14T02:16:44.717Z,76.05
2023-05-14T02:21:46.696Z,76.06
2023-05-14T02:26:48.506Z,76.47
2023-05-14T02:31:50.436Z,76.69
2023-05-14T02:36:52.375Z,77.27
2023-05-14T02:41:54.083Z,76.54
2023-05-14T02:46:55.828Z,77.12
2023-05-14T02:51:57.688Z,78.02
2023-05-14T02:56:59.363Z,78.26
2023-05-14T03:02:01.075Z,79.47
2023-05-14T03:07:03.514Z,79.93
2023-05-14T03:12:07.030Z,79.65
2023-05-14T03:17:09.006Z,80.22
2023-05-14T03:22:10.901Z,80.18
2023-05-14T03:27:12.577Z,80.10
2023-05-14T03:32:15.002Z,80.09
2023-05-14T03:37:16.671Z,79.37
2023-05-14T03:42:18.406Z,78.19
2023-05-14T03:47:20.084Z,77.36
2023-05-14T03:52:21.819Z,75.46
2023-05-14T03:57:23.611Z,74.19
2023-05-14T04:07:12.539Z,72.50
2023-05-14T04:12:14.368Z,72.78
2023-05-14T04:17:16.254Z,72.85
2023-05-14T04:22:17.987Z,73.58
2023-05-14T04:27:21.367Z,71.80
2023-05-14T04:32:23.340Z,68.62
2023-05-14T04:37:26.142Z,64.20
2023-05-14T04:42:27.918Z,60.59
2023-05-14T04:47:29.758Z,58.43
2023-05-14T04:52:31.547Z,55.30
2023-05-14T04:57:33.274Z,52.57
2023-05-14T05:02:35.213Z,50.59
2023-05-14T05:07:36.973Z,48.83
2023-05-14T05:12:38.917Z,47.09
2023-05-14T05:17:40.734Z,45.55
2023-05-14T05:22:42.402Z,47.27
2023-05-14T05:27:44.167Z,51.34
2023-05-14T05:32:46.249Z,56.37
2023-05-14T05:37:48.132Z,58.86
2023-05-14T05:42:49.839Z,61.28
2023-05-14T05:47:51.746Z,60.92
2023-05-14T05:52:53.427Z,58.16
2023-05-14T05:57:55.589Z,54.25
2023-05-14T06:02:57.294Z,50.28
2023-05-14T06:07:59.441Z,47.55
2023-05-14T06:13:01.187Z,45.66
2023-05-14T06:18:03.101Z,45.47
2023-05-14T06:23:04.880Z,45.27
2023-05-14T06:28:06.589Z,45.19
2023-05-14T06:33:08.312Z,45.86
2023-05-14T06:38:09.955Z,49.18
2023-05-14T06:43:11.712Z,51.51
2023-05-14T06:48:13.529Z,52.54
2023-05-14T06:53:15.657Z,53.85
2023-05-14T06:58:17.338Z,53.93
2023-05-14T07:03:19.474Z,53.54
2023-05-14T07:08:21.092Z,53.65
2023-05-14T07:13:23.315Z,53.13
2023-05-14T07:18:25.152Z,52.54
2023-05-14T07:23:26.896Z,51.55
2023-05-14T07:28:28.625Z,50.67
2023-05-14T07:33:30.374Z,50.03
2023-05-14T07:38:32.715Z,50.07
2023-05-14T07:43:34.813Z,49.37
2023-05-14T07:48:36.638Z,48.82
2023-05-14T07:53:38.410Z,47.70
2023-05-14T07:58:41.442Z,48.51
2023-05-14T08:03:43.538Z,47.63
2023-05-14T08:08:45.320Z,45.91
2023-05-14T08:13:46.969Z,45.19
2023-05-14T08:18:49.255Z,43.14
2023-05-14T08:23:50.933Z,43.60
2023-05-14T08:28:54.462Z,44.70
2023-05-14T08:33:56.416Z,44.87
2023-05-14T08:38:58.259Z,45.44
2023-05-14T08:44:14.074Z,45.20
2023-05-14T08:49:40.732Z,43.48
2023-05-14T08:54:42.699Z,43.52
2023-05-14T08:59:44.586Z,43.39
2023-05-14T09:04:47.508Z,43.43
2023-05-14T09:09:49.463Z,43.54
2023-05-14T09:14:51.373Z,43.69
2023-05-14T09:19:53.648Z,42.61
2023-05-14T09:25:26.494Z,43.00
2023-05-14T09:30:28.315Z,41.38
2023-05-14T09:35:30.010Z,42.15
2023-05-14T09:40:31.794Z,41.88
2023-05-14T09:45:35.113Z,39.75
2023-05-14T09:50:46.642Z,40.42
2023-05-14T09:55:49.350Z,38.87
2023-05-14T10:00:51.924Z,39.92
2023-05-14T10:05:56.126Z,39.49
2023-05-14T10:10:59.457Z,37.50
2023-05-14T10:16:44.645Z,37.15
2023-05-14T10:21:53.140Z,36.93
2023-05-14T10:26:55.108Z,36.24
2023-05-14T10:31:56.876Z,35.76
2023-05-14T10:37:03.036Z,35.42
2023-05-14T10:42:05.126Z,35.04
2023-05-14T10:47:07.928Z,34.59
2023-05-14T10:52:10.543Z,34.15
2023-05-14T10:57:12.665Z,34.20
2023-05-14T11:02:21.723Z,34.99
2023-05-14T11:07:43.643Z,34.75
2023-05-14T11:12:47.265Z,34.74
2023-05-14T11:17:50.748Z,34.22
2023-05-14T11:22:52.765Z,34.11
2023-05-14T11:27:58.393Z,34.06
2023-05-14T11:33:02.090Z,33.76
2023-05-14T11:38:03.947Z,33.56
2023-05-14T11:43:05.767Z,33.47
2023-05-14T11:48:15.054Z,33.19
2023-05-14T11:53:30.896Z,33.38
2023-05-14T11:58:33.885Z,34.07
2023-05-14T12:03:36.003Z,33.11
2023-05-14T12:08:37.903Z,33.49
2023-05-14T12:13:39.652Z,34.12
2023-05-14T12:18:42.585Z,34.02
2023-05-14T12:23:44.445Z,34.42
2023-05-14T12:28:47.760Z,34.50
2023-05-14T12:33:49.406Z,34.39
2023-05-14T12:38:56.897Z,34.24
2023-05-14T12:44:00.007Z,34.02
2023-05-14T12:49:01.699Z,34.35
2023-05-14T12:54:03.638Z,34.86
2023-05-14T12:59:05.303Z,34.69
2023-05-14T13:04:07.935Z,35.10
2023-05-14T13:09:09.692Z,34.96
2023-05-14T13:14:11.344Z,34.40
2023-05-14T13:19:12.990Z,34.46
2023-05-14T13:24:15.312Z,34.70
2023-05-14T13:29:16.957Z,35.66
2023-05-14T13:34:18.889Z,35.82
2023-05-14T13:39:22.760Z,35.90
2023-05-14T13:44:24.630Z,36.38
2023-05-14T13:49:26.647Z,36.71
2023-05-14T13:54:28.316Z,36.58
2023-05-14T13:59:30.093Z,36.64
2023-05-14T14:04:32.102Z,37.55
2023-05-14T14:09:35.846Z,37.89
2023-05-14T14:14:37.528Z,37.56
2023-05-14T14:19:39.307Z,36.85
2023-05-14T14:24:41.040Z,36.83
2023-05-14T14:29:42.736Z,37.70
2023-05-14T14:34:44.458Z,38.51
2023-05-14T14:39:46.165Z,39.20
2023-05-14T14:44:47.819Z,39.26
2023-05-14T14:49:49.619Z,39.80
2023-05-14T14:54:51.773Z,40.53
2023-05-14T14:59:53.487Z,41.81
2023-05-14T15:04:55.851Z,43.37
2023-05-14T15:09:57.480Z,44.63
2023-05-14T15:14:59.143Z,43.53
2023-05-14T15:20:21.018Z,43.45
2023-05-14T15:25:24.287Z,43.83
2023-05-14T15:30:26.203Z,44.10
2023-05-14T15:35:27.914Z,44.20
2023-05-14T15:40:29.773Z,43.82
2023-05-14T15:45:31.550Z,44.68
2023-05-14T15:50:33.402Z,45.43
2023-05-14T15:55:35.602Z,47.02
2023-05-14T16:00:37.356Z,48.16
2023-05-14T16:05:39.159Z,48.32
2023-05-14T16:10:40.852Z,47.48
2023-05-14T16:15:43.014Z,47.35
2023-05-14T16:20:44.765Z,47.28
2023-05-14T16:25:46.635Z,47.66
2023-05-14T16:30:48.578Z,47.60
2023-05-14T16:35:51.388Z,47.66
2023-05-14T16:40:53.006Z,47.78
2023-05-14T16:45:55.877Z,48.43
2023-05-14T16:50:59.462Z,50.60
2023-05-14T16:56:01.749Z,52.92
2023-05-14T17:01:03.522Z,53.16
2023-05-14T17:06:05.645Z,54.00
2023-05-14T17:11:07.393Z,55.03
2023-05-14T17:16:09.100Z,56.17
2023-05-14T17:21:11.001Z,56.39
2023-05-14T17:26:12.789Z,58.75
2023-05-14T17:31:14.570Z,63.44
2023-05-14T17:36:16.695Z,63.58
2023-05-14T17:41:18.379Z,63.88
2023-05-14T17:46:21.314Z,63.50
2023-05-14T17:51:22.956Z,61.05
2023-05-14T17:56:24.746Z,64.01
2023-05-14T18:01:26.569Z,65.79
2023-05-14T18:06:28.500Z,65.91
2023-05-14T18:11:33.986Z,66.19
2023-05-14T18:16:37.097Z,66.47
2023-05-14T18:21:38.824Z,66.75
2023-05-14T18:26:40.740Z,66.75
2023-05-14T18:31:42.373Z,67.52
2023-05-14T18:36:44.110Z,67.83
2023-05-14T18:41:45.851Z,68.46
2023-05-14T18:46:47.635Z,67.72
2023-05-14T18:51:49.455Z,70.54
2023-05-14T18:56:51.286Z,72.20
2023-05-14T19:01:53.382Z,69.25
2023-05-14T19:06:55.127Z,71.10
2023-05-14T19:11:56.799Z,73.22
2023-05-14T19:16:58.977Z,77.05
2023-05-14T19:22:00.724Z,77.37
2023-05-14T19:27:02.549Z,79.18
2023-05-14T19:32:05.173Z,79.54
2023-05-14T19:37:07.239Z,80.50
2023-05-14T19:42:09.028Z,81.00
2023-05-14T19:47:10.907Z,78.02
2023-05-14T19:52:12.654Z,80.88
2023-05-14T19:57:14.350Z,79.82
2023-05-14T20:02:18.438Z,81.45
2023-05-14T20:07:20.411Z,82.13
2023-05-14T20:12:22.037Z,82.42
2023-05-14T20:17:24.889Z,82.24
2023-05-14T20:22:26.716Z,82.69
2023-05-14T20:27:28.451Z,83.23
2023-05-14T20:32:30.232Z,83.74
2023-05-14T20:37:32.574Z,83.49
2023-05-14T20:42:35.098Z,82.73
2023-05-14T20:47:36.932Z,82.12
2023-05-14T20:52:38.631Z,82.08
2023-05-14T20:57:40.887Z,81.75
2023-05-14T21:02:45.483Z,79.82
2023-05-14T21:07:48.291Z,79.95
2023-05-14T21:12:54.893Z,79.93
2023-05-14T21:17:56.597Z,80.81
2023-05-14T21:22:58.333Z,81.32
2023-05-14T21:28:00.144Z,81.89
2023-05-14T21:33:03.190Z,82.68
2023-05-14T21:38:04.929Z,83.13
2023-05-14T21:43:07.149Z,81.73
2023-05-14T21:48:10.765Z,83.70
2023-05-14T21:53:13.948Z,82.04
2023-05-14T21:58:15.778Z,81.30
2023-05-14T22:03:17.533Z,82.59
2023-05-14T22:08:19.245Z,83.63
2023-05-14T22:13:20.942Z,83.56
2023-05-14T22:18:24.214Z,84.18
2023-05-14T22:23:25.871Z,83.09
2023-05-14T22:28:27.573Z,84.27
2023-05-14T22:33:29.300Z,85.17
2023-05-14T22:38:30.997Z,84.71
2023-05-14T22:43:32.723Z,83.86
2023-05-14T22:48:34.417Z,85.18
2023-05-14T22:53:36.185Z,85.06
2023-05-14T22:58:37.897Z,85.98
2023-05-14T23:03:39.691Z,86.42
2023-05-14T23:08:42.940Z,86.99
2023-05-14T23:13:50.712Z,87.29
2023-05-14T23:18:52.780Z,87.38
2023-05-14T23:24:02.398Z,87.44
2023-05-14T23:29:04.075Z,87.30
2023-05-14T23:34:06.019Z,87.13
2023-05-14T23:39:08.679Z,86.93
2023-05-14T23:44:11.120Z,86.68
2023-05-14T23:49:14.233Z,86.37
2023-05-14T23:54:17.290Z,86.15
2023-05-14T23:59:19.018Z,86.09
